This is the latest recevied weather packets stored in our database for station/object N4OGP-WX. If no packets are shown the sender has not sent any weather packets the latest 10 day(s).
| Time | Temp. | Humidity | Pressure | Rain* | Wind** | Luminosity | Snow |
|---|---|---|---|---|---|---|---|
| 1777520089 | 20.56° C | 89% | 1011.1 hPa | 0 mm | - | - | - |
| 1777519999 | 23.89° C | 42% | 1020.4 hPa | 0 mm | - | - | - |
| 1777519940 | 20.56° C | 89% | 1011.2 hPa | 0 mm | - | - | - |
| 1777519880 | 23.89° C | 42% | 1020.4 hPa | 0 mm | - | - | - |
| 1777519819 | 23.89° C | 42% | 1020.4 hPa | 0 mm | - | - | - |
| 1777519729 | 23.89° C | 42% | 1020.4 hPa | 0 mm | - | - | - |
| 1777519669 | 20.56° C | 89% | 1011.6 hPa | 0 mm | - | - | - |
| 1777519579 | 20.56° C | 89% | 1011.7 hPa | 0 mm | - | - | - |
| 1777519519 | 20.56° C | 89% | 1011.7 hPa | 0 mm | - | - | - |
| 1777519430 | 23.89° C | 42% | 1020.4 hPa | 0 mm | - | - | - |
| 1777519370 | 20.56° C | 89% | 1011.6 hPa | 0 mm | - | - | - |
| 1777519309 | 20.56° C | 89% | 1011.6 hPa | 0 mm | - | - | - |
| 1777519219 | 20.56° C | 89% | 1011.6 hPa | 0 mm | - | - | - |
| 1777519160 | 20.56° C | 89% | 1011.6 hPa | 0 mm | - | - | - |
| 1777519099 | 20.56° C | 88% | 1011.8 hPa | 0 mm | - | - | - |
| 1777519009 | 20.56° C | 88% | 1011.9 hPa | 0 mm | - | - | - |
| 1777518919 | 20.56° C | 88% | 1011.9 hPa | 0 mm | - | - | - |
| 1777518859 | 20.56° C | 88% | 1011.9 hPa | 0 mm | - | - | - |
| 1777518799 | 23.89° C | 42% | 1020.4 hPa | 0 mm | - | - | - |
| 1777518739 | 20.56° C | 88% | 1011.7 hPa | 0 mm | - | - | - |
| 1777518679 | 20.56° C | 88% | 1011.6 hPa | 0 mm | - | - | - |
| 1777518589 | 23.89° C | 42% | 1020.4 hPa | 0 mm | - | - | - |
| 1777518500 | 23.89° C | 42% | 1020.4 hPa | 0 mm | - | - | - |
| 1777518409 | 20.56° C | 88% | 1012.1 hPa | 0 mm | - | - | - |
| 1777518349 | 23.89° C | 42% | 1020.4 hPa | 0 mm | - | - | - |
* Rain latest hour (hover to see other rain measurements)
** Current wind speed in m/s (hover to see current wind gust speed)